Latest Coastal Weather Observations for Coffs Harbour

IDN60701

Issued at 6:05 am EST Monday 22 September 2014 (issued every 10 minutes, with the page automatically refreshed every 10 minutes)

About coastal observations | Map of coastal stations | Coastal observations for NSW | Marine services | Other Formats
Station Details ID: 059040 Name: COFFS HARBOUR MO Lat: -30.31 Lon: 153.12 Height: 5.0 m
Data from the previous 72 hours. | See also: Recent months at Coffs Harbour
Date/Time
EST
Temp

°C
Wind Pressure Rain
since 9am
mm
Weather Cloud Vis
km
Sea
Height
m
Swell
Dir
 
Speed
knots
Gust
knots
hPa Trend Height
m
Period
s
Dir
22/06:00am 12.3 SSW 6 6 1029.2 - 4.6 - Cloudy 10 - - - -
22/05:30am 12.5 W 7 8 1028.8 - 4.4 - Partly cloudy 10 - - - -
22/05:00am 12.4 WSW 7 8 1028.7 - 4.4 - Partly cloudy 10 - - - -
22/04:30am 12.2 WSW 7 9 1028.5 - 4.4 - Partly cloudy 10 - - - -
22/04:00am 12.4 S 5 6 1028.3 - 4.4 - Partly cloudy 10 - - - -
22/03:30am 11.6 CALM 0 3 1028.3 - 4.0 - Partly cloudy 10 - - - -
22/03:09am 11.6 W 1 4 1028.2 - 4.0 - Partly cloudy 10 - - - -
22/03:00am 11.3 W 4 4 1028.3 - 4.0 - Cloudy 7 - - - -
22/02:58am 11.3 W 4 4 1028.2 - 4.0 - Partly cloudy 6 - - - -
22/02:30am 11.7 W 5 6 1028.3 - 4.0 - Partly cloudy 9 - - - -
22/02:00am 12.1 WNW 5 6 1028.4 - 4.0 - Partly cloudy 8 - - - -
22/01:30am 12.3 W 5 6 1028.8 - 4.0 - Partly cloudy 10 - - - -
22/01:00am 12.7 W 7 8 1029.0 - 4.0 - Partly cloudy 10 - - - -
22/12:41am 12.7 WSW 7 9 1029.2 - 3.6 - Partly cloudy 5 - - - -
22/12:31am 12.7 WSW 9 10 1029.3 - 3.0 - Partly cloudy 10 - - - -
22/12:30am 12.7 WSW 9 10 1029.3 - 3.0 - Partly cloudy 10 - - - -
22/12:00am 12.4 SSW 3 7 1029.8 - 2.2 - Cloudy 6 - - - -
 
Date/Time
EST
Temp

°C
Wind Pressure Rain
since 9am
mm
Weather Cloud Vis
km
Sea
Height
m
Swell
Dir
 
Speed
knots
Gust
knots
hPa Trend Height
m
Period
s
Dir
21/11:57pm 12.4 SSW 3 6 1029.7 - 2.2 - Partly cloudy 6 - - - -
21/11:30pm 11.7 WSW 6 8 1029.4 - 1.6 - - 10 - - - -
21/11:00pm 11.3 WNW 1 3 1029.4 - 1.6 - - 10 - - - -
21/10:30pm 12.1 CALM 0 0 1029.8 - 1.6 - - 10 - - - -
21/10:00pm 12.5 W 1 4 1029.9 - 1.6 - Partly cloudy 10 - - - -
21/09:30pm 13.1 SW 4 5 1029.8 - 1.6 - Partly cloudy 10 - - - -
21/09:00pm 13.6 SW 6 7 1029.7 - 1.6 - Cloudy 10 - - - -
21/08:30pm 14.0 WSW 5 7 1029.4 - 1.6 - Partly cloudy 10 - - - -
21/08:00pm 15.2 SSE 9 14 1029.1 - 1.6 - Partly cloudy 10 - - - -
21/07:30pm 16.9 SSE 10 13 1028.7 - 1.6 - Partly cloudy 10 - - - -
21/07:00pm 17.3 SSE 9 12 1028.3 - 1.6 - Partly cloudy 10 - - - -
21/06:30pm 17.1 SSE 9 13 1027.9 - 1.6 - Partly cloudy 10 - - - -
21/06:00pm 17.1 SSE 9 13 1027.8 - 1.6 - - 10 - - - -
21/05:30pm 17.2 SSE 11 15 1027.4 - 1.6 - Partly cloudy 10 - - - -
21/05:00pm 17.9 SE 10 14 1027.6 - 1.6 - Partly cloudy 10 - - - -
21/04:30pm 18.0 SSE 11 17 1027.4 - 1.6 - Partly cloudy 10 - - - -
21/04:00pm 17.6 SSE 13 17 1027.1 - 1.6 - Partly cloudy 10 - - - -
21/03:30pm 18.3 S 13 18 1026.9 - 1.6 - Partly cloudy 10 - - - -
21/03:00pm 17.9 SE 11 14 1027.0 R 1.6 Rain Cloudy 15 - - - -
21/02:30pm 17.9 S 14 18 1026.9 - 1.6 - Partly cloudy 10 - - - -
21/02:00pm 17.5 S 15 19 1026.9 - 1.6 - Partly cloudy 10 - - - -
21/01:50pm 17.1 S 15 20 1026.8 - 1.6 - Partly cloudy 10 - - - -
21/01:31pm 16.1 SSE 11 21 1027.4 - 1.2 - Partly cloudy 6 - - - -
21/01:30pm 16.3 SSE 11 21 1027.5 - 0.8 - Partly cloudy 9 - - - -
21/01:08pm 17.7 S 15 27 1027.3 - 0.0 - Partly cloudy 10 - - - -
21/01:00pm 16.9 S 11 16 1027.1 - 0.0 - Partly cloudy 10 - - - -
21/12:30pm 17.3 SE 11 15 1027.3 - 0.0 - Partly cloudy 10 - - - -
21/12:00pm 18.2 SSE 14 19 1027.9 - 0.0 - Cloudy 10 - - - -
21/11:30am 19.6 S 14 18 1028.0 - 0.0 - Partly cloudy 10 - - - -
21/11:00am 19.9 S 15 18 1028.4 - 0.0 - Partly cloudy 10 - - - -
21/10:30am 18.2 S 14 18 1028.8 - 0.0 - - 10 - - - -
21/10:00am 18.9 S 13 19 1028.6 - 0.0 - - 10 - - - -
21/09:30am 17.6 SW 10 15 1028.7 - 0.0 - - 10 - - - -
21/09:00am 16.6 SW 11 15 1028.6 R 0.0 Haze Partly cloudy 20 - - - -
21/08:30am 16.5 SW 11 16 1028.7 - 0.0 - - 10 - - - -
21/08:00am 17.0 SW 11 14 1028.3 - 0.0 - - 10 - - - -
21/07:30am 16.3 WSW 11 15 1027.9 - 0.0 - - 10 - - - -
21/07:00am 14.9 WSW 10 15 1027.7 - 0.0 - - 10 - - - -
21/06:30am 13.4 SW 7 10 1027.1 - 0.0 - - 10 - - - -
21/06:00am 12.4 WSW 8 10 1027.1 - 0.0 - - 10 - - - -
21/05:30am 13.2 SW 9 10 1026.6 - 0.0 - - 10 - - - -
21/05:00am 13.7 WSW 9 12 1026.1 - 0.0 - - 10 - - - -
21/04:30am 13.5 SW 8 10 1025.8 - 0.0 - - 10 - - - -
21/04:00am 13.6 WSW 9 12 1025.7 - 0.0 - - 10 - - - -
21/03:30am 13.8 WSW 9 12 1025.6 - 0.0 - - 10 - - - -
21/03:00am 13.7 WSW 8 11 1025.8 - 0.0 - - 10 - - - -
21/02:30am 14.0 WSW 9 13 1025.9 - 0.0 - - 10 - - - -
21/02:00am 13.9 WSW 9 13 1026.1 - 0.0 - - 10 - - - -
21/01:30am 14.2 WSW 11 16 1026.0 - 0.0 - - 10 - - - -
21/01:00am 14.6 WSW 11 16 1026.2 - 0.0 - - 10 - - - -
21/12:30am 14.7 WSW 11 15 1026.2 - 0.0 - - 10 - - - -
21/12:00am 14.8 WSW 11 15 1026.5 - 0.0 - - 10 - - - -
 
Date/Time
EST
Temp

°C
Wind Pressure Rain
since 9am
mm
Weather Cloud Vis
km
Sea
Height
m
Swell
Dir
 
Speed
knots
Gust
knots
hPa Trend Height
m
Period
s
Dir
20/11:30pm 15.0 WSW 10 14 1026.3 - 0.0 - - 10 - - - -
20/11:00pm 15.2 WSW 8 13 1026.4 - 0.0 - - 10 - - - -
20/10:30pm 15.2 WSW 9 15 1026.3 - 0.0 - Partly cloudy 10 - - - -
20/10:00pm 15.3 WSW 8 11 1026.1 - 0.0 - Partly cloudy 10 - - - -
20/09:30pm 14.5 WSW 9 13 1025.9 - 0.0 - - 10 - - - -
20/09:00pm 15.0 SW 10 14 1026.0 - 0.0 - Cloudy 10 - - - -
20/08:30pm 15.2 SW 9 13 1025.8 - 0.0 - Partly cloudy 10 - - - -
20/08:00pm 15.1 SW 7 10 1025.6 - 0.0 - Partly cloudy 10 - - - -
20/07:30pm 15.4 WSW 6 8 1025.3 - 0.0 - Partly cloudy 10 - - - -
20/07:00pm 15.7 S 11 15 1024.8 - 0.0 - Partly cloudy 10 - - - -
20/06:30pm 16.9 S 10 15 1024.3 - 0.0 - Partly cloudy 10 - - - -
20/06:00pm 17.0 S 10 15 1023.9 - 0.0 - - 10 - - - -
20/05:30pm 17.4 SSE 10 14 1023.1 - 0.0 - - 10 - - - -
20/05:00pm 18.3 SSE 10 14 1022.6 - 0.0 - - 10 - - - -
20/04:30pm 19.1 SSE 10 14 1022.2 - 0.0 - - 10 - - - -
20/04:00pm 19.4 SE 9 12 1022.0 - 0.0 - - 10 - - - -
20/03:30pm 19.8 SE 8 10 1021.6 - 0.0 - - 10 - - - -
20/03:00pm 20.0 SE 8 9 1021.5 - 0.0 - - 10 - - - -
20/02:30pm 19.7 SE 8 10 1021.3 - 0.0 - - 10 - - - -
20/02:00pm 19.5 SSE 7 10 1021.3 - 0.0 - - 10 - - - -
20/01:30pm 19.4 SE 9 11 1021.5 - 0.0 - - 10 - - - -
20/01:00pm 19.6 SE 10 12 1021.7 - 0.0 - - 10 - - - -
20/12:30pm 19.4 SE 9 11 1022.1 - 0.0 - - 10 - - - -
20/12:00pm 18.8 SE 9 10 1022.5 - 0.0 - - 10 - - - -
20/11:30am 19.3 SSE 9 12 1022.8 - 0.0 - - 10 - - - -
20/11:00am 19.4 S 9 11 1023.2 - 0.0 - - 10 - - - -
20/10:30am 19.1 S 9 11 1023.3 - 0.0 - - 10 - - - -
20/10:00am 19.1 SSE 8 10 1023.4 - 0.0 - - 10 - - - -
20/09:30am 18.5 SW 7 9 1023.5 - 0.0 - - 10 - - - -
20/09:00am 18.0 WSW 8 11 1023.4 R 0.6 Haze Clear 25 - - - -
20/08:30am 17.5 WSW 8 10 1023.3 - 0.6 - - 10 - - - -
20/08:00am 16.2 WSW 5 7 1023.2 - 0.6 - - 10 - - - -
20/07:30am 14.6 WSW 2 4 1023.0 - 0.6 - - 10 - - - -
20/07:00am 12.8 WNW 4 4 1022.6 - 0.6 - - 10 - - - -
20/06:30am 11.4 SW 5 5 1022.2 - 0.6 - - 10 - - - -
20/06:00am 10.0 CALM 0 0 1021.8 - 0.6 - - 10 - - - -
20/05:30am 10.0 SW 3 5 1021.6 - 0.6 - Partly cloudy 10 - - - -
20/05:00am 10.7 WSW 1 4 1021.2 - 0.6 - - 10 - - - -
20/04:30am 11.3 WNW 3 4 1020.6 - 0.6 - Partly cloudy 10 - - - -
20/04:00am 11.9 SW 5 7 1020.3 - 0.6 - Partly cloudy 10 - - - -
20/03:30am 12.3 CALM 0 0 1020.5 - 0.6 - Partly cloudy 10 - - - -
20/03:00am 12.3 W 1 3 1020.4 - 0.6 - Cloudy 10 - - - -
20/02:30am 12.1 WSW 5 7 1020.2 - 0.6 - Partly cloudy 10 - - - -
20/02:00am 12.2 WSW 8 10 1020.5 - 0.6 - Partly cloudy 10 - - - -
20/01:30am 11.5 SW 7 8 1020.6 - 0.6 - Partly cloudy 10 - - - -
20/01:00am 11.8 SW 5 7 1020.7 - 0.6 - - 10 - - - -
20/12:30am 12.4 WSW 4 6 1021.0 - 0.6 - Partly cloudy 10 - - - -
20/12:00am 13.1 SW 7 9 1021.3 - 0.6 - Cloudy 10 - - - -
 
Date/Time
EST
Temp

°C
Wind Pressure Rain
since 9am
mm
Weather Cloud Vis
km
Sea
Height
m
Swell
Dir
 
Speed
knots
Gust
knots
hPa Trend Height
m
Period
s
Dir
19/11:30pm 13.3 WSW 7 11 1021.2 - 0.6 - Partly cloudy 10 - - - -
19/11:00pm 13.3 SW 5 7 1021.1 - 0.6 - Partly cloudy 10 - - - -
19/10:30pm 13.6 SW 7 8 1021.3 - 0.6 - Partly cloudy 10 - - - -
19/10:00pm 13.9 SSW 6 8 1021.6 - 0.6 - Partly cloudy 10 - - - -
19/09:30pm 14.3 SW 6 9 1021.2 - 0.6 - Cloudy 10 - - - -
19/09:00pm 14.8 W 6 8 1021.1 - 0.4 - Cloudy 10 - - - -
19/08:30pm 15.0 W 5 6 1020.8 - 0.2 - Partly cloudy 10 - - - -
19/08:00pm 14.9 WNW 2 5 1020.9 - 0.2 - Partly cloudy 10 - - - -
19/07:30pm 14.9 WNW 3 4 1020.7 - 0.2 - Partly cloudy 10 - - - -
19/07:00pm 14.9 SW 3 5 1020.2 - 0.2 - Partly cloudy 10 - - - -
19/06:30pm 14.9 W 3 5 1019.7 - 0.2 - Partly cloudy 10 - - - -
19/06:00pm 14.7 E 4 5 1019.3 - 0.2 - - 10 - - - -
19/05:30pm 16.1 ESE 6 8 1018.9 - 0.2 - Partly cloudy 10 - - - -
19/05:00pm 17.7 ESE 5 7 1018.8 - 0.0 - Partly cloudy 10 - - - -
19/04:30pm 18.0 ESE 6 7 1018.6 - 0.0 - Partly cloudy 10 - - - -
19/04:00pm 18.3 ESE 6 9 1018.3 - 0.0 - Partly cloudy 10 - - - -
19/03:30pm 18.4 E 7 10 1018.0 - 0.0 - Partly cloudy 10 - - - -
19/03:00pm 18.4 E 7 10 1018.0 - 0.0 - Cloudy 10 - - - -
19/02:30pm 19.0 ESE 8 12 1018.0 - 0.0 - Partly cloudy 10 - - - -
19/02:00pm 18.6 ESE 8 11 1018.4 - 0.0 - - 10 - - - -
19/01:30pm 18.6 ESE 8 11 1018.7 - 0.0 - Partly cloudy 10 - - - -
19/01:00pm 18.9 SE 7 10 1019.2 - 0.0 - - 10 - - - -
19/12:30pm 18.1 SE 7 10 1019.8 - 0.0 - - 10 - - - -
19/12:00pm 18.1 SE 7 10 1020.4 - 0.0 - - 10 - - - -
19/11:30am 18.3 SSE 8 10 1020.5 - 0.0 - - 10 - - - -
19/11:00am 18.6 SSE 9 11 1020.9 - 0.0 - - 10 - - - -
19/10:30am 16.9 SE 9 10 1021.3 - 0.0 - - 10 - - - -
19/10:00am 17.9 SSE 7 10 1021.6 - 0.0 - - 10 - - - -
19/09:30am 18.0 SSE 8 10 1021.9 - 0.0 - - 10 - - - -
19/09:00am 15.1 S 7 10 1022.2 S 0.0 Haze Mostly clear 20 - - - -
19/08:30am 16.5 SW 7 9 1022.3 - 0.0 - - 10 - - - -
19/08:00am 15.5 SW 6 8 1022.3 - 0.0 - - 10 - - - -
19/07:30am 13.4 W 4 4 1022.1 - 0.0 - - 10 - - - -
19/07:00am 11.0 W 3 4 1021.9 - 0.0 - - 10 - - - -
19/06:30am 8.6 W 4 4 1021.6 - 0.0 - - 10 - - - -

Other Formats:

Comma delimited format used in spreadsheet applications
http://www.bom.gov.au/fwo/IDN60701/IDN60701.94791.axf

JavaScript Object Notation format (JSON) in row-major order
http://www.bom.gov.au/fwo/IDN60701/IDN60701.94791.json